sensor_id;sensor_type;location;lat;lon;timestamp;pressure;altitude;pressure_sealevel;temperature;humidity
42725;BME280;28369;44.046;23.014;2023-01-26T00:00:49;101999.91;;;1.95;85.92
42725;BME280;28369;44.046;23.014;2023-01-26T00:03:15;101937.31;;;1.76;85.23
42725;BME280;28369;44.046;23.014;2023-01-26T00:05:41;102173.28;;;3.14;84.90
42725;BME280;28369;44.046;23.014;2023-01-26T00:08:07;101932.78;;;1.50;85.13
42725;BME280;28369;44.046;23.014;2023-01-26T00:10:37;102001.28;;;2.10;85.86
42725;BME280;28369;44.046;23.014;2023-01-26T00:13:04;102113.50;;;2.83;86.22
42725;BME280;28369;44.046;23.014;2023-01-26T00:15:31;101956.59;;;1.99;85.97
42725;BME280;28369;44.046;23.014;2023-01-26T00:17:58;101936.81;;;1.62;85.49
42725;BME280;28369;44.046;23.014;2023-01-26T00:20:24;102228.56;;;3.51;85.94
42725;BME280;28369;44.046;23.014;2023-01-26T00:22:49;101898.81;;;1.61;85.18
42725;BME280;28369;44.046;23.014;2023-01-26T00:25:14;102165.28;;;3.22;86.21
42725;BME280;28369;44.046;23.014;2023-01-26T00:27:40;102144.19;;;3.01;86.07
42725;BME280;28369;44.046;23.014;2023-01-26T00:30:06;102090.72;;;2.61;86.34
42725;BME280;28369;44.046;23.014;2023-01-26T00:32:33;102102.13;;;2.55;86.90
42725;BME280;28369;44.046;23.014;2023-01-26T00:34:59;101963.91;;;1.84;86.65
42725;BME280;28369;44.046;23.014;2023-01-26T00:37:25;102157.84;;;3.08;86.01
42725;BME280;28369;44.046;23.014;2023-01-26T00:39:50;102055.66;;;2.46;86.54
42725;BME280;28369;44.046;23.014;2023-01-26T00:42:16;102073.31;;;2.33;86.04
42725;BME280;28369;44.046;23.014;2023-01-26T00:44:42;102169.66;;;2.88;86.41
42725;BME280;28369;44.046;23.014;2023-01-26T00:47:09;101898.06;;;1.55;86.89
42725;BME280;28369;44.046;23.014;2023-01-26T00:49:35;101473.00;;;-0.97;86.10
42725;BME280;28369;44.046;23.014;2023-01-26T00:52:01;102056.41;;;2.50;87.03
42725;BME280;28369;44.046;23.014;2023-01-26T00:54:27;101986.91;;;1.97;87.47
42725;BME280;28369;44.046;23.014;2023-01-26T00:56:53;101936.81;;;1.95;86.63
42725;BME280;28369;44.046;23.014;2023-01-26T00:59:19;102014.69;;;1.93;87.74
42725;BME280;28369;44.046;23.014;2023-01-26T01:01:45;101761.25;;;0.68;87.68
42725;BME280;28369;44.046;23.014;2023-01-26T01:04:11;102191.34;;;3.49;87.32
42725;BME280;28369;44.046;23.014;2023-01-26T01:06:36;102099.59;;;2.85;87.48
42725;BME280;28369;44.046;23.014;2023-01-26T01:09:02;102200.22;;;3.41;87.55
42725;BME280;28369;44.046;23.014;2023-01-26T01:11:28;102099.94;;;2.73;87.64
42725;BME280;28369;44.046;23.014;2023-01-26T01:13:53;102193.00;;;3.51;87.54
42725;BME280;28369;44.046;23.014;2023-01-26T01:16:19;101877.22;;;1.26;87.62
42725;BME280;28369;44.046;23.014;2023-01-26T01:18:44;101864.84;;;1.37;87.53
42725;BME280;28369;44.046;23.014;2023-01-26T01:21:12;102001.81;;;2.21;87.45
42725;BME280;28369;44.046;23.014;2023-01-26T01:23:38;102105.22;;;2.70;87.90
42725;BME280;28369;44.046;23.014;2023-01-26T01:26:04;102006.34;;;2.15;88.17
42725;BME280;28369;44.046;23.014;2023-01-26T01:28:31;102001.81;;;2.21;88.01
42725;BME280;28369;44.046;23.014;2023-01-26T01:30:57;102126.03;;;3.00;88.21
42725;BME280;28369;44.046;23.014;2023-01-26T01:33:23;102023.13;;;2.33;88.17
42725;BME280;28369;44.046;23.014;2023-01-26T01:35:59;102016.44;;;2.24;87.69
42725;BME280;28369;44.046;23.014;2023-01-26T01:38:26;101872.88;;;1.61;87.77
42725;BME280;28369;44.046;23.014;2023-01-26T01:40:52;102081.41;;;2.85;87.68
42725;BME280;28369;44.046;23.014;2023-01-26T01:43:18;101859.97;;;1.59;87.60
42725;BME280;28369;44.046;23.014;2023-01-26T01:45:45;102162.19;;;3.39;88.19
42725;BME280;28369;44.046;23.014;2023-01-26T01:48:19;102023.41;;;2.55;87.52
42725;BME280;28369;44.046;23.014;2023-01-26T01:50:51;101904.81;;;1.94;88.28
42725;BME280;28369;44.046;23.014;2023-01-26T01:53:20;101842.00;;;1.51;88.16
42725;BME280;28369;44.046;23.014;2023-01-26T01:55:52;102082.63;;;3.03;88.26
42725;BME280;28369;44.046;23.014;2023-01-26T01:58:20;102121.63;;;3.33;87.94
42725;BME280;28369;44.046;23.014;2023-01-26T02:00:46;101629.53;;;0.23;88.40
42725;BME280;28369;44.046;23.014;2023-01-26T02:03:11;101521.53;;;-0.37;88.25
42725;BME280;28369;44.046;23.014;2023-01-26T02:08:16;101912.19;;;2.10;87.70
42725;BME280;28369;44.046;23.014;2023-01-26T02:10:45;101943.50;;;2.35;87.63
42725;BME280;28369;44.046;23.014;2023-01-26T02:13:11;102050.28;;;3.14;87.75
42725;BME280;28369;44.046;23.014;2023-01-26T02:15:37;102055.53;;;3.12;87.48
42725;BME280;28369;44.046;23.014;2023-01-26T02:18:04;102113.94;;;3.57;87.06
42725;BME280;28369;44.046;23.014;2023-01-26T02:20:48;102133.78;;;3.61;87.61
42725;BME280;28369;44.046;23.014;2023-01-26T02:28:26;101720.09;;;0.92;86.71
42725;BME280;28369;44.046;23.014;2023-01-26T02:30:53;101429.22;;;-0.66;87.47
42725;BME280;28369;44.046;23.014;2023-01-26T02:33:22;101562.28;;;0.23;87.13
42725;BME280;28369;44.046;23.014;2023-01-26T02:35:48;102057.94;;;3.18;87.31
42725;BME280;28369;44.046;23.014;2023-01-26T02:38:14;101345.69;;;-0.99;86.99
42725;BME280;28369;44.046;23.014;2023-01-26T02:43:11;101970.50;;;2.59;88.25
42725;BME280;28369;44.046;23.014;2023-01-26T02:45:38;101497.78;;;-0.16;87.85
42725;BME280;28369;44.046;23.014;2023-01-26T02:48:04;101836.00;;;1.82;87.68
42725;BME280;28369;44.046;23.014;2023-01-26T02:50:32;101779.81;;;1.51;88.80
42725;BME280;28369;44.046;23.014;2023-01-26T02:52:58;102117.53;;;3.53;88.58
42725;BME280;28369;44.046;23.014;2023-01-26T02:55:24;102095.91;;;3.52;88.70
42725;BME280;28369;44.046;23.014;2023-01-26T02:57:59;102083.41;;;3.35;89.24
42725;BME280;28369;44.046;23.014;2023-01-26T03:00:32;101895.22;;;2.29;89.47
42725;BME280;28369;44.046;23.014;2023-01-26T03:03:13;101965.59;;;2.48;89.03
42725;BME280;28369;44.046;23.014;2023-01-26T03:05:39;101708.13;;;1.20;88.71
42725;BME280;28369;44.046;23.014;2023-01-26T03:08:04;101976.81;;;2.80;88.30
42725;BME280;28369;44.046;23.014;2023-01-26T03:10:34;102018.66;;;2.99;88.38
42725;BME280;28369;44.046;23.014;2023-01-26T03:12:59;101959.69;;;2.73;88.70
42725;BME280;28369;44.046;23.014;2023-01-26T03:15:25;102077.53;;;3.28;88.98
42725;BME280;28369;44.046;23.014;2023-01-26T03:18:21;101866.41;;;2.07;88.61
42725;BME280;28369;44.046;23.014;2023-01-26T03:21:10;102082.94;;;3.22;89.23
42725;BME280;28369;44.046;23.014;2023-01-26T03:23:54;101870.47;;;2.17;88.60
42725;BME280;28369;44.046;23.014;2023-01-26T03:26:39;101841.00;;;2.18;88.24
42725;BME280;28369;44.046;23.014;2023-01-26T03:29:24;102026.47;;;3.27;87.58
42725;BME280;28369;44.046;23.014;2023-01-26T03:31:51;101984.22;;;2.92;88.00
42725;BME280;28369;44.046;23.014;2023-01-26T03:34:17;101933.22;;;2.62;88.70
42725;BME280;28369;44.046;23.014;2023-01-26T03:36:42;101994.03;;;2.83;89.40
42725;BME280;28369;44.046;23.014;2023-01-26T03:39:08;101989.25;;;2.97;87.85
42725;BME280;28369;44.046;23.014;2023-01-26T03:41:33;101987.47;;;2.99;87.85
42725;BME280;28369;44.046;23.014;2023-01-26T03:44:17;101918.03;;;2.48;88.18
42725;BME280;28369;44.046;23.014;2023-01-26T03:47:01;101969.50;;;2.91;88.07
42725;BME280;28369;44.046;23.014;2023-01-26T03:49:45;101975.28;;;3.01;87.98
42725;BME280;28369;44.046;23.014;2023-01-26T03:52:32;102022.38;;;3.20;88.51
42725;BME280;28369;44.046;23.014;2023-01-26T03:55:16;101989.09;;;3.03;88.40
42725;BME280;28369;44.046;23.014;2023-01-26T03:58:00;102010.66;;;3.05;88.38
42725;BME280;28369;44.046;23.014;2023-01-26T04:00:26;102005.16;;;3.16;88.21
42725;BME280;28369;44.046;23.014;2023-01-26T04:02:51;101809.28;;;2.10;88.34
42725;BME280;28369;44.046;23.014;2023-01-26T04:05:35;102009.38;;;3.20;88.64
42725;BME280;28369;44.046;23.014;2023-01-26T04:08:19;101981.91;;;3.11;87.47
42725;BME280;28369;44.046;23.014;2023-01-26T04:10:53;101966.69;;;2.99;88.57
42725;BME280;28369;44.046;23.014;2023-01-26T04:13:21;101961.22;;;2.80;88.51
42725;BME280;28369;44.046;23.014;2023-01-26T04:16:06;101975.44;;;2.97;88.97
42725;BME280;28369;44.046;23.014;2023-01-26T04:18:50;101983.59;;;3.13;88.85
42725;BME280;28369;44.046;23.014;2023-01-26T04:21:34;101976.31;;;2.96;88.94
42725;BME280;28369;44.046;23.014;2023-01-26T04:24:02;101991.34;;;3.14;88.78
42725;BME280;28369;44.046;23.014;2023-01-26T04:26:34;101916.91;;;2.56;88.54
42725;BME280;28369;44.046;23.014;2023-01-26T04:29:01;102013.50;;;2.98;89.40
42725;BME280;28369;44.046;23.014;2023-01-26T04:31:27;101848.00;;;2.16;88.97
42725;BME280;28369;44.046;23.014;2023-01-26T04:33:52;102004.25;;;3.17;88.67
42725;BME280;28369;44.046;23.014;2023-01-26T04:36:18;101923.16;;;2.79;87.91
42725;BME280;28369;44.046;23.014;2023-01-26T04:38:43;101781.78;;;2.03;87.46
42725;BME280;28369;44.046;23.014;2023-01-26T04:41:09;101656.75;;;1.35;86.82
42725;BME280;28369;44.046;23.014;2023-01-26T04:43:34;101997.91;;;3.53;86.23
42725;BME280;28369;44.046;23.014;2023-01-26T04:46:03;101972.97;;;3.47;86.56
42725;BME280;28369;44.046;23.014;2023-01-26T04:48:29;101692.78;;;1.72;85.96
42725;BME280;28369;44.046;23.014;2023-01-26T04:50:56;101860.09;;;2.74;86.11
42725;BME280;28369;44.046;23.014;2023-01-26T04:53:22;101974.06;;;3.40;84.90
42725;BME280;28369;44.046;23.014;2023-01-26T04:55:47;101712.44;;;1.80;84.54
42725;BME280;28369;44.046;23.014;2023-01-26T04:58:13;101895.88;;;2.92;85.20
42725;BME280;28369;44.046;23.014;2023-01-26T05:00:38;101852.25;;;2.75;85.10
42725;BME280;28369;44.046;23.014;2023-01-26T05:03:04;101923.44;;;3.25;84.70
42725;BME280;28369;44.046;23.014;2023-01-26T05:05:29;101947.22;;;3.39;83.83
42725;BME280;28369;44.046;23.014;2023-01-26T05:07:55;101819.78;;;2.62;84.37
42725;BME280;28369;44.046;23.014;2023-01-26T05:10:20;101941.19;;;3.39;83.82
42725;BME280;28369;44.046;23.014;2023-01-26T05:12:46;101945.50;;;3.13;84.90
42725;BME280;28369;44.046;23.014;2023-01-26T05:15:11;101836.19;;;2.36;84.96
42725;BME280;28369;44.046;23.014;2023-01-26T05:17:37;101862.22;;;2.61;84.15
42725;BME280;28369;44.046;23.014;2023-01-26T05:20:03;101803.47;;;2.30;84.07
42725;BME280;28369;44.046;23.014;2023-01-26T05:22:28;101846.56;;;2.36;84.85
42725;BME280;28369;44.046;23.014;2023-01-26T05:24:54;101977.94;;;3.00;85.29
42725;BME280;28369;44.046;23.014;2023-01-26T05:27:19;101699.28;;;1.58;84.73
42725;BME280;28369;44.046;23.014;2023-01-26T05:29:45;101666.03;;;1.42;84.78
42725;BME280;28369;44.046;23.014;2023-01-26T05:32:10;101844.75;;;2.38;85.77
42725;BME280;28369;44.046;23.014;2023-01-26T05:34:36;101728.91;;;1.49;85.98
42725;BME280;28369;44.046;23.014;2023-01-26T05:37:01;101904.16;;;2.77;85.94
42725;BME280;28369;44.046;23.014;2023-01-26T05:39:27;101782.59;;;2.05;85.30
42725;BME280;28369;44.046;23.014;2023-01-26T05:41:52;101864.50;;;2.44;85.30
42725;BME280;28369;44.046;23.014;2023-01-26T05:44:21;101936.94;;;2.81;86.25
42725;BME280;28369;44.046;23.014;2023-01-26T05:46:46;101650.69;;;1.05;86.39
42725;BME280;28369;44.046;23.014;2023-01-26T05:49:12;101866.38;;;2.38;86.33
42725;BME280;28369;44.046;23.014;2023-01-26T05:51:37;101965.31;;;3.16;85.67
42725;BME280;28369;44.046;23.014;2023-01-26T05:54:03;101937.84;;;2.80;86.82
42725;BME280;28369;44.046;23.014;2023-01-26T05:56:29;101845.31;;;2.19;87.58
42725;BME280;28369;44.046;23.014;2023-01-26T05:58:54;101959.63;;;3.03;86.61
42725;BME280;28369;44.046;23.014;2023-01-26T06:01:20;101945.41;;;2.58;87.88
42725;BME280;28369;44.046;23.014;2023-01-26T06:03:45;101732.22;;;1.54;87.84
42725;BME280;28369;44.046;23.014;2023-01-26T06:06:10;101931.81;;;3.06;88.28
42725;BME280;28369;44.046;23.014;2023-01-26T06:08:36;101880.78;;;2.77;87.58
42725;BME280;28369;44.046;23.014;2023-01-26T06:11:01;101641.34;;;1.30;87.63
42725;BME280;28369;44.046;23.014;2023-01-26T06:13:28;101883.56;;;2.71;87.29
42725;BME280;28369;44.046;23.014;2023-01-26T06:15:54;101867.00;;;2.75;87.31
42725;BME280;28369;44.046;23.014;2023-01-26T06:18:19;101785.06;;;2.38;87.09
42725;BME280;28369;44.046;23.014;2023-01-26T06:20:45;101824.47;;;2.51;86.76
42725;BME280;28369;44.046;23.014;2023-01-26T06:23:10;101948.19;;;3.37;86.93
42725;BME280;28369;44.046;23.014;2023-01-26T06:25:39;101853.91;;;2.78;86.85
42725;BME280;28369;44.046;23.014;2023-01-26T06:28:05;101705.50;;;1.82;86.47
42725;BME280;28369;44.046;23.014;2023-01-26T06:30:30;101808.44;;;2.38;86.26
42725;BME280;28369;44.046;23.014;2023-01-26T06:32:58;101891.09;;;2.80;85.35
42725;BME280;28369;44.046;23.014;2023-01-26T06:35:24;101923.22;;;3.04;86.01
42725;BME280;28369;44.046;23.014;2023-01-26T06:37:51;101849.91;;;2.68;85.67
42725;BME280;28369;44.046;23.014;2023-01-26T06:40:17;101885.75;;;2.85;86.18
42725;BME280;28369;44.046;23.014;2023-01-26T06:42:47;101779.03;;;2.37;86.45
42725;BME280;28369;44.046;23.014;2023-01-26T06:45:13;101708.34;;;1.72;85.45
42725;BME280;28369;44.046;23.014;2023-01-26T06:47:46;101791.19;;;2.07;85.64
42725;BME280;28369;44.046;23.014;2023-01-26T06:50:14;101553.50;;;0.91;85.82
42725;BME280;28369;44.046;23.014;2023-01-26T06:52:41;101729.13;;;2.01;84.42
42725;BME280;28369;44.046;23.014;2023-01-26T06:55:15;101536.09;;;0.66;85.04
42725;BME280;28369;44.046;23.014;2023-01-26T06:57:41;101921.34;;;3.09;85.46
42725;BME280;28369;44.046;23.014;2023-01-26T07:00:10;101904.56;;;2.91;85.54
42725;BME280;28369;44.046;23.014;2023-01-26T07:02:36;101955.38;;;3.02;86.06
42725;BME280;28369;44.046;23.014;2023-01-26T07:05:02;101942.00;;;3.13;85.89
42725;BME280;28369;44.046;23.014;2023-01-26T07:07:27;101862.44;;;2.55;85.50
42725;BME280;28369;44.046;23.014;2023-01-26T07:09:53;101641.28;;;1.32;85.59
42725;BME280;28369;44.046;23.014;2023-01-26T07:12:19;101821.41;;;2.38;84.97
42725;BME280;28369;44.046;23.014;2023-01-26T07:14:45;101955.13;;;3.09;85.18
42725;BME280;28369;44.046;23.014;2023-01-26T07:17:11;101784.38;;;2.03;86.71
42725;BME280;28369;44.046;23.014;2023-01-26T07:19:36;101873.47;;;2.62;86.77
42725;BME280;28369;44.046;23.014;2023-01-26T07:22:02;101866.69;;;2.84;86.47
42725;BME280;28369;44.046;23.014;2023-01-26T07:24:28;101832.91;;;2.84;86.07
42725;BME280;28369;44.046;23.014;2023-01-26T07:26:54;101585.22;;;0.99;85.79
42725;BME280;28369;44.046;23.014;2023-01-26T07:29:19;101663.63;;;1.36;85.38
42725;BME280;28369;44.046;23.014;2023-01-26T07:31:45;101798.72;;;2.45;85.95
42725;BME280;28369;44.046;23.014;2023-01-26T07:34:12;101924.91;;;3.05;86.94
42725;BME280;28369;44.046;23.014;2023-01-26T07:36:37;101711.41;;;1.85;86.52
42725;BME280;28369;44.046;23.014;2023-01-26T07:39:04;101365.50;;;0.01;86.21
42725;BME280;28369;44.046;23.014;2023-01-26T07:41:30;101765.69;;;2.48;86.30
42725;BME280;28369;44.046;23.014;2023-01-26T07:43:56;101902.31;;;3.09;87.14
42725;BME280;28369;44.046;23.014;2023-01-26T07:46:21;101810.59;;;2.79;87.70
42725;BME280;28369;44.046;23.014;2023-01-26T07:48:49;101594.22;;;1.17;87.60
42725;BME280;28369;44.046;23.014;2023-01-26T07:51:15;101897.50;;;3.23;88.16
42725;BME280;28369;44.046;23.014;2023-01-26T07:53:40;101531.81;;;1.25;87.67
42725;BME280;28369;44.046;23.014;2023-01-26T07:56:08;101803.25;;;2.91;87.00
42725;BME280;28369;44.046;23.014;2023-01-26T07:58:34;101753.41;;;2.27;87.36
42725;BME280;28369;44.046;23.014;2023-01-26T08:01:05;101873.56;;;3.14;87.52
42725;BME280;28369;44.046;23.014;2023-01-26T08:03:30;101908.19;;;3.41;87.35
42725;BME280;28369;44.046;23.014;2023-01-26T08:05:56;101887.75;;;3.55;86.56
42725;BME280;28369;44.046;23.014;2023-01-26T08:08:21;101637.28;;;2.06;85.58
42725;BME280;28369;44.046;23.014;2023-01-26T08:10:47;101900.19;;;3.72;85.33
42725;BME280;28369;44.046;23.014;2023-01-26T08:13:12;101623.16;;;2.15;84.61
42725;BME280;28369;44.046;23.014;2023-01-26T08:15:38;101816.94;;;3.47;84.39
42725;BME280;28369;44.046;23.014;2023-01-26T08:18:03;101873.03;;;3.79;84.92
42725;BME280;28369;44.046;23.014;2023-01-26T08:20:29;101800.16;;;3.32;83.34
42725;BME280;28369;44.046;23.014;2023-01-26T08:22:55;101431.25;;;0.81;83.82
42725;BME280;28369;44.046;23.014;2023-01-26T08:25:21;101601.72;;;1.83;84.50
42725;BME280;28369;44.046;23.014;2023-01-26T08:27:46;101903.31;;;3.57;85.25
42725;BME280;28369;44.046;23.014;2023-01-26T08:30:12;101551.28;;;1.37;85.83
42725;BME280;28369;44.046;23.014;2023-01-26T08:32:37;101787.31;;;2.75;86.14
42725;BME280;28369;44.046;23.014;2023-01-26T08:35:03;101796.16;;;2.97;87.20
42725;BME280;28369;44.046;23.014;2023-01-26T08:37:29;101771.41;;;2.86;86.40
42725;BME280;28369;44.046;23.014;2023-01-26T08:39:54;101704.38;;;2.44;85.74
42725;BME280;28369;44.046;23.014;2023-01-26T08:42:20;101814.44;;;3.20;85.09
42725;BME280;28369;44.046;23.014;2023-01-26T08:44:45;101862.63;;;3.56;84.57
42725;BME280;28369;44.046;23.014;2023-01-26T08:47:10;101815.06;;;3.27;85.18
42725;BME280;28369;44.046;23.014;2023-01-26T08:49:36;101831.44;;;3.54;85.22
42725;BME280;28369;44.046;23.014;2023-01-26T08:52:02;101737.00;;;3.05;83.72
42725;BME280;28369;44.046;23.014;2023-01-26T08:54:28;101882.25;;;3.65;84.59
42725;BME280;28369;44.046;23.014;2023-01-26T08:56:53;101636.44;;;2.06;85.14
42725;BME280;28369;44.046;23.014;2023-01-26T08:59:19;101610.94;;;2.19;85.33
42725;BME280;28369;44.046;23.014;2023-01-26T09:01:47;101734.47;;;3.03;83.42
42725;BME280;28369;44.046;23.014;2023-01-26T09:04:12;101608.28;;;1.94;83.72
42725;BME280;28369;44.046;23.014;2023-01-26T09:06:38;101874.81;;;3.79;83.82
42725;BME280;28369;44.046;23.014;2023-01-26T09:09:03;101798.69;;;3.49;83.54
42725;BME280;28369;44.046;23.014;2023-01-26T09:11:29;101773.44;;;3.52;83.29
42725;BME280;28369;44.046;23.014;2023-01-26T09:13:55;101846.94;;;4.06;83.31
42725;BME280;28369;44.046;23.014;2023-01-26T09:16:22;101764.69;;;3.55;82.92
42725;BME280;28369;44.046;23.014;2023-01-26T09:18:49;101525.56;;;2.11;83.35
42725;BME280;28369;44.046;23.014;2023-01-26T09:21:15;101811.06;;;3.91;82.49
42725;BME280;28369;44.046;23.014;2023-01-26T09:23:41;101264.19;;;0.71;82.12
42725;BME280;28369;44.046;23.014;2023-01-26T09:26:06;101843.84;;;4.19;82.51
42725;BME280;28369;44.046;23.014;2023-01-26T09:28:32;101410.09;;;1.50;82.73
42725;BME280;28369;44.046;23.014;2023-01-26T09:31:02;101470.50;;;1.78;83.75
42725;BME280;28369;44.046;23.014;2023-01-26T09:33:29;101301.13;;;0.76;85.54
42725;BME280;28369;44.046;23.014;2023-01-26T09:35:55;101378.00;;;1.01;85.18
42725;BME280;28369;44.046;23.014;2023-01-26T09:38:20;101818.22;;;3.84;85.86
42725;BME280;28369;44.046;23.014;2023-01-26T09:41:13;101734.13;;;3.13;86.77
42725;BME280;28369;44.046;23.014;2023-01-26T09:43:50;101758.16;;;3.43;88.51
42725;BME280;28369;44.046;23.014;2023-01-26T09:49:02;101804.00;;;3.45;89.92
42725;BME280;28369;44.046;23.014;2023-01-26T09:51:35;101684.38;;;2.98;90.92
42725;BME280;28369;44.046;23.014;2023-01-26T09:54:45;101797.03;;;3.71;91.59
42725;BME280;28369;44.046;23.014;2023-01-26T09:56:51;101460.34;;;1.71;90.92
42725;BME280;28369;44.046;23.014;2023-01-26T09:59:37;101654.16;;;2.96;91.54
42725;BME280;28369;44.046;23.014;2023-01-26T10:02:19;101575.72;;;2.62;92.27
42725;BME280;28369;44.046;23.014;2023-01-26T10:04:51;101467.28;;;1.96;91.41
42725;BME280;28369;44.046;23.014;2023-01-26T10:07:18;101676.50;;;3.25;90.75
42725;BME280;28369;44.046;23.014;2023-01-26T10:09:49;101578.25;;;2.64;90.70
42725;BME280;28369;44.046;23.014;2023-01-26T10:12:30;101339.31;;;1.23;91.12
42725;BME280;28369;44.046;23.014;2023-01-26T10:15:05;101446.06;;;1.85;91.73
42725;BME280;28369;44.046;23.014;2023-01-26T10:17:38;101704.31;;;3.46;92.87
42725;BME280;28369;44.046;23.014;2023-01-26T10:20:41;101713.34;;;3.60;92.46
42725;BME280;28369;44.046;23.014;2023-01-26T10:23:15;101631.59;;;2.98;93.15
42725;BME280;28369;44.046;23.014;2023-01-26T10:25:42;101411.25;;;1.42;93.37
42725;BME280;28369;44.046;23.014;2023-01-26T10:28:20;101289.06;;;1.02;93.52
42725;BME280;28369;44.046;23.014;2023-01-26T10:30:48;101746.47;;;3.78;94.00
42725;BME280;28369;44.046;23.014;2023-01-26T10:33:35;101745.88;;;3.94;94.12
42725;BME280;28369;44.046;23.014;2023-01-26T10:36:02;101588.41;;;3.17;93.54
42725;BME280;28369;44.046;23.014;2023-01-26T10:41:06;101525.41;;;3.12;93.81
42725;BME280;28369;44.046;23.014;2023-01-26T10:46:40;101429.88;;;2.73;91.90
42725;BME280;28369;44.046;23.014;2023-01-26T10:55:32;101709.50;;;4.37;91.07
42725;BME280;28369;44.046;23.014;2023-01-26T10:57:36;101563.03;;;3.48;91.40
42725;BME280;28369;44.046;23.014;2023-01-26T11:00:22;101640.47;;;4.06;92.46
42725;BME280;28369;44.046;23.014;2023-01-26T11:02:52;101343.53;;;2.23;93.36
42725;BME280;28369;44.046;23.014;2023-01-26T11:05:21;101208.47;;;1.35;92.98
42725;BME280;28369;44.046;23.014;2023-01-26T11:07:52;101680.59;;;4.22;93.18
42725;BME280;28369;44.046;23.014;2023-01-26T11:10:26;101666.59;;;4.25;93.76
42725;BME280;28369;44.046;23.014;2023-01-26T11:13:12;101655.31;;;4.24;93.99
42725;BME280;28369;44.046;23.014;2023-01-26T11:15:43;101535.78;;;3.34;94.32
42725;BME280;28369;44.046;23.014;2023-01-26T11:20:54;101613.56;;;3.85;95.59
42725;BME280;28369;44.046;23.014;2023-01-26T11:23:59;101634.63;;;4.01;95.89
42725;BME280;28369;44.046;23.014;2023-01-26T11:31:58;101628.44;;;3.81;98.44
42725;BME280;28369;44.046;23.014;2023-01-26T11:37:52;101151.81;;;0.77;99.60
42725;BME280;28369;44.046;23.014;2023-01-26T11:40:29;101315.03;;;1.98;99.14
42725;BME280;28369;44.046;23.014;2023-01-26T11:43:42;101612.09;;;4.00;98.46
42725;BME280;28369;44.046;23.014;2023-01-26T11:51:39;101582.56;;;4.01;96.73
42725;BME280;28369;44.046;23.014;2023-01-26T11:54:22;101614.53;;;4.45;96.27
42725;BME280;28369;44.046;23.014;2023-01-26T11:59:51;101474.84;;;3.41;95.31
42725;BME280;28369;44.046;23.014;2023-01-26T12:02:35;101603.41;;;4.21;95.97
42725;BME280;28369;44.046;23.014;2023-01-26T12:05:22;101506.81;;;3.66;95.31
42725;BME280;28369;44.046;23.014;2023-01-26T12:08:05;101589.22;;;4.08;96.00
42725;BME280;28369;44.046;23.014;2023-01-26T12:10:44;101485.22;;;3.63;95.61
42725;BME280;28369;44.046;23.014;2023-01-26T12:16:29;100992.84;;;1.06;92.71
42725;BME280;28369;44.046;23.014;2023-01-26T12:21:36;101050.25;;;1.40;92.27
42725;BME280;28369;44.046;23.014;2023-01-26T12:24:05;101600.94;;;4.59;91.05
42725;BME280;28369;44.046;23.014;2023-01-26T12:26:40;101216.59;;;2.39;91.13
42725;BME280;28369;44.046;23.014;2023-01-26T12:31:52;101545.69;;;4.32;94.70
42725;BME280;28369;44.046;23.014;2023-01-26T12:34:31;101294.91;;;2.93;93.87
42725;BME280;28369;44.046;23.014;2023-01-26T12:40:39;101135.59;;;1.88;95.15
42725;BME280;28369;44.046;23.014;2023-01-26T12:43:34;101526.16;;;4.22;94.85
42725;BME280;28369;44.046;23.014;2023-01-26T12:46:01;101323.53;;;2.92;95.37
42725;BME280;28369;44.046;23.014;2023-01-26T12:51:28;100867.44;;;0.45;94.55
42725;BME280;28369;44.046;23.014;2023-01-26T12:54:20;101117.50;;;1.87;94.75
42725;BME280;28369;44.046;23.014;2023-01-26T12:56:52;100822.88;;;0.39;94.30
42725;BME280;28369;44.046;23.014;2023-01-26T13:01:54;101259.28;;;2.54;93.86
42725;BME280;28369;44.046;23.014;2023-01-26T13:04:20;101256.25;;;2.65;95.13
42725;BME280;28369;44.046;23.014;2023-01-26T13:07:01;101140.31;;;2.01;94.37
42725;BME280;28369;44.046;23.014;2023-01-26T13:09:27;101296.91;;;2.87;95.62
42725;BME280;28369;44.046;23.014;2023-01-26T13:11:58;100974.53;;;1.11;95.17
42725;BME280;28369;44.046;23.014;2023-01-26T13:14:26;101476.16;;;4.34;95.93
42725;BME280;28369;44.046;23.014;2023-01-26T13:16:52;101049.28;;;1.42;93.27
42725;BME280;28369;44.046;23.014;2023-01-26T13:19:38;100881.72;;;0.56;95.27
42725;BME280;28369;44.046;23.014;2023-01-26T13:24:47;100962.91;;;0.99;95.54
42725;BME280;28369;44.046;23.014;2023-01-26T13:35:15;101256.31;;;2.84;98.06
42725;BME280;28369;44.046;23.014;2023-01-26T13:40:35;101068.50;;;1.59;98.20
42725;BME280;28369;44.046;23.014;2023-01-26T13:45:49;101362.72;;;3.28;99.59
42725;BME280;28369;44.046;23.014;2023-01-26T13:50:58;101259.28;;;2.54;100.00
42725;BME280;28369;44.046;23.014;2023-01-26T13:53:48;101177.78;;;1.94;100.00
42725;BME280;28369;44.046;23.014;2023-01-26T13:56:31;101478.28;;;4.05;100.00
42725;BME280;28369;44.046;23.014;2023-01-26T14:01:32;100820.53;;;-0.15;100.00
42725;BME280;28369;44.046;23.014;2023-01-26T14:04:05;100811.47;;;-0.03;100.00
42725;BME280;28369;44.046;23.014;2023-01-26T14:06:33;101146.47;;;1.76;100.00
42725;BME280;28369;44.046;23.014;2023-01-26T14:09:02;101468.78;;;3.63;100.00
42725;BME280;28369;44.046;23.014;2023-01-26T14:11:30;101059.53;;;1.45;100.00
42725;BME280;28369;44.046;23.014;2023-01-26T14:13:58;101459.75;;;3.92;100.00
42725;BME280;28369;44.046;23.014;2023-01-26T14:16:35;101125.31;;;1.65;100.00
42725;BME280;28369;44.046;23.014;2023-01-26T14:21:31;101102.81;;;1.87;100.00
42725;BME280;28369;44.046;23.014;2023-01-26T14:23:57;101160.09;;;2.03;100.00
42725;BME280;28369;44.046;23.014;2023-01-26T14:26:35;101460.66;;;4.12;100.00
42725;BME280;28369;44.046;23.014;2023-01-26T14:29:00;101011.38;;;1.40;100.00